Hartford, Connecticut
Traffic Map
Current Weather Conditions
Hartford, Connecticut
Clear
Clear
71°
Feels Like: 71°
Wind Chill: 71° Ceiling: Unl
Heat Index: 71° Visibility: 10mi
Dew Point: 57° Wind: 10mph
Humidity: 61% Direction: 180° (S)
Pressure: 30.15in Gusts: 0mph
Raw Report DataKHFD 260053Z 18009KT 10SM CLR 22/14 A3015 RMK AO2 SLP209 T02170139
Traffic Incident Summary
Active as of:
Severity:
Category:
InformationThere was an issue retrieving the traffic information for this location. Please try a different location or try again shortly.
Advertisements
Track Severe Weather on mobile